sensor_id;sensor_type;location;lat;lon;timestamp;P1;durP1;ratioP1;P2;durP2;ratioP2
19049;SDS011;9657;45.940;12.840;2023-04-03T00:01:51;5.07;;;3.70;;
19049;SDS011;9657;45.940;12.840;2023-04-03T00:04:18;4.90;;;3.70;;
19049;SDS011;9657;45.940;12.840;2023-04-03T00:06:45;4.37;;;3.47;;
19049;SDS011;9657;45.940;12.840;2023-04-03T00:09:13;4.30;;;3.50;;
19049;SDS011;9657;45.940;12.840;2023-04-03T00:11:40;4.43;;;3.67;;
19049;SDS011;9657;45.940;12.840;2023-04-03T00:14:07;6.07;;;4.07;;
19049;SDS011;9657;45.940;12.840;2023-04-03T00:16:34;5.67;;;3.67;;
19049;SDS011;9657;45.940;12.840;2023-04-03T00:19:02;4.60;;;3.60;;
19049;SDS011;9657;45.940;12.840;2023-04-03T00:21:29;5.30;;;4.13;;
19049;SDS011;9657;45.940;12.840;2023-04-03T00:23:56;5.77;;;4.03;;
19049;SDS011;9657;45.940;12.840;2023-04-03T00:26:25;5.23;;;3.83;;
19049;SDS011;9657;45.940;12.840;2023-04-03T00:28:52;4.00;;;3.60;;
19049;SDS011;9657;45.940;12.840;2023-04-03T00:31:19;3.57;;;3.13;;
19049;SDS011;9657;45.940;12.840;2023-04-03T00:33:46;4.13;;;3.73;;
19049;SDS011;9657;45.940;12.840;2023-04-03T00:36:13;5.60;;;4.07;;
19049;SDS011;9657;45.940;12.840;2023-04-03T00:38:40;4.50;;;3.90;;
19049;SDS011;9657;45.940;12.840;2023-04-03T00:41:07;4.17;;;3.77;;
19049;SDS011;9657;45.940;12.840;2023-04-03T00:43:35;5.77;;;3.80;;
19049;SDS011;9657;45.940;12.840;2023-04-03T00:46:03;5.53;;;3.67;;
19049;SDS011;9657;45.940;12.840;2023-04-03T00:48:31;5.13;;;3.57;;
19049;SDS011;9657;45.940;12.840;2023-04-03T00:51:00;4.43;;;3.80;;
19049;SDS011;9657;45.940;12.840;2023-04-03T00:53:29;4.40;;;4.00;;
19049;SDS011;9657;45.940;12.840;2023-04-03T00:55:59;5.10;;;4.00;;
19049;SDS011;9657;45.940;12.840;2023-04-03T00:58:28;4.93;;;3.60;;
19049;SDS011;9657;45.940;12.840;2023-04-03T01:03:36;4.77;;;3.50;;
19049;SDS011;9657;45.940;12.840;2023-04-03T01:06:03;5.20;;;3.70;;
19049;SDS011;9657;45.940;12.840;2023-04-03T01:08:31;5.83;;;4.07;;
19049;SDS011;9657;45.940;12.840;2023-04-03T01:10:58;3.50;;;3.20;;
19049;SDS011;9657;45.940;12.840;2023-04-03T01:13:26;5.80;;;4.10;;
19049;SDS011;9657;45.940;12.840;2023-04-03T01:15:55;5.27;;;4.03;;
19049;SDS011;9657;45.940;12.840;2023-04-03T01:18:22;4.63;;;3.37;;
19049;SDS011;9657;45.940;12.840;2023-04-03T01:21:02;4.07;;;3.40;;
19049;SDS011;9657;45.940;12.840;2023-04-03T01:23:59;5.90;;;3.70;;
19049;SDS011;9657;45.940;12.840;2023-04-03T01:26:52;5.77;;;3.77;;
19049;SDS011;9657;45.940;12.840;2023-04-03T01:29:19;4.20;;;3.60;;
19049;SDS011;9657;45.940;12.840;2023-04-03T01:31:51;5.23;;;4.10;;
19049;SDS011;9657;45.940;12.840;2023-04-03T01:34:20;4.47;;;3.73;;
19049;SDS011;9657;45.940;12.840;2023-04-03T01:36:47;4.13;;;3.73;;
19049;SDS011;9657;45.940;12.840;2023-04-03T01:39:15;5.33;;;3.60;;
19049;SDS011;9657;45.940;12.840;2023-04-03T01:41:42;4.90;;;4.07;;
19049;SDS011;9657;45.940;12.840;2023-04-03T01:44:10;5.07;;;3.77;;
19049;SDS011;9657;45.940;12.840;2023-04-03T01:46:37;4.67;;;4.00;;
19049;SDS011;9657;45.940;12.840;2023-04-03T01:49:05;6.67;;;3.70;;
19049;SDS011;9657;45.940;12.840;2023-04-03T01:51:32;6.50;;;4.40;;
19049;SDS011;9657;45.940;12.840;2023-04-03T01:53:59;5.93;;;3.73;;
19049;SDS011;9657;45.940;12.840;2023-04-03T01:56:26;6.30;;;4.20;;
19049;SDS011;9657;45.940;12.840;2023-04-03T01:58:53;6.40;;;3.87;;
19049;SDS011;9657;45.940;12.840;2023-04-03T02:01:20;5.30;;;3.93;;
19049;SDS011;9657;45.940;12.840;2023-04-03T02:03:48;6.37;;;4.03;;
19049;SDS011;9657;45.940;12.840;2023-04-03T02:06:16;5.87;;;4.00;;
19049;SDS011;9657;45.940;12.840;2023-04-03T02:08:43;6.07;;;4.47;;
19049;SDS011;9657;45.940;12.840;2023-04-03T02:11:10;4.47;;;3.90;;
19049;SDS011;9657;45.940;12.840;2023-04-03T02:13:37;5.43;;;3.77;;
19049;SDS011;9657;45.940;12.840;2023-04-03T02:16:08;5.03;;;4.03;;
19049;SDS011;9657;45.940;12.840;2023-04-03T02:18:36;5.80;;;3.80;;
19049;SDS011;9657;45.940;12.840;2023-04-03T02:21:03;4.87;;;4.13;;
19049;SDS011;9657;45.940;12.840;2023-04-03T02:23:32;5.23;;;3.80;;
19049;SDS011;9657;45.940;12.840;2023-04-03T02:26:05;4.70;;;4.03;;
19049;SDS011;9657;45.940;12.840;2023-04-03T02:28:33;5.03;;;4.17;;
19049;SDS011;9657;45.940;12.840;2023-04-03T02:31:00;5.77;;;4.07;;
19049;SDS011;9657;45.940;12.840;2023-04-03T02:33:27;7.00;;;4.37;;
19049;SDS011;9657;45.940;12.840;2023-04-03T02:35:54;5.53;;;4.37;;
19049;SDS011;9657;45.940;12.840;2023-04-03T02:38:22;4.33;;;3.93;;
19049;SDS011;9657;45.940;12.840;2023-04-03T02:40:51;5.40;;;3.70;;
19049;SDS011;9657;45.940;12.840;2023-04-03T02:43:18;4.10;;;3.70;;
19049;SDS011;9657;45.940;12.840;2023-04-03T02:45:45;6.07;;;4.20;;
19049;SDS011;9657;45.940;12.840;2023-04-03T02:48:12;5.83;;;3.93;;
19049;SDS011;9657;45.940;12.840;2023-04-03T02:50:39;5.57;;;4.10;;
19049;SDS011;9657;45.940;12.840;2023-04-03T02:53:07;4.60;;;3.97;;
19049;SDS011;9657;45.940;12.840;2023-04-03T02:55:34;6.30;;;3.43;;
19049;SDS011;9657;45.940;12.840;2023-04-03T02:58:02;5.43;;;4.03;;
19049;SDS011;9657;45.940;12.840;2023-04-03T03:00:30;5.57;;;4.40;;
19049;SDS011;9657;45.940;12.840;2023-04-03T03:02:57;5.50;;;4.23;;
19049;SDS011;9657;45.940;12.840;2023-04-03T03:05:24;4.37;;;3.77;;
19049;SDS011;9657;45.940;12.840;2023-04-03T03:07:51;4.13;;;3.63;;
19049;SDS011;9657;45.940;12.840;2023-04-03T03:10:18;5.30;;;3.93;;
19049;SDS011;9657;45.940;12.840;2023-04-03T03:12:45;4.83;;;3.80;;
19049;SDS011;9657;45.940;12.840;2023-04-03T03:15:14;5.80;;;4.27;;
19049;SDS011;9657;45.940;12.840;2023-04-03T03:17:42;4.83;;;3.97;;
19049;SDS011;9657;45.940;12.840;2023-04-03T03:20:10;5.80;;;4.90;;
19049;SDS011;9657;45.940;12.840;2023-04-03T03:22:39;4.33;;;3.93;;
19049;SDS011;9657;45.940;12.840;2023-04-03T03:25:06;4.83;;;3.60;;
19049;SDS011;9657;45.940;12.840;2023-04-03T03:27:34;5.00;;;3.90;;
19049;SDS011;9657;45.940;12.840;2023-04-03T03:30:01;4.97;;;3.87;;
19049;SDS011;9657;45.940;12.840;2023-04-03T03:32:29;5.40;;;4.33;;
19049;SDS011;9657;45.940;12.840;2023-04-03T03:34:56;6.57;;;4.10;;
19049;SDS011;9657;45.940;12.840;2023-04-03T03:37:23;4.77;;;3.90;;
19049;SDS011;9657;45.940;12.840;2023-04-03T03:39:50;5.50;;;4.03;;
19049;SDS011;9657;45.940;12.840;2023-04-03T03:42:17;4.93;;;4.43;;
19049;SDS011;9657;45.940;12.840;2023-04-03T03:44:44;5.17;;;4.13;;
19049;SDS011;9657;45.940;12.840;2023-04-03T03:47:11;4.50;;;4.10;;
19049;SDS011;9657;45.940;12.840;2023-04-03T03:49:40;5.23;;;4.17;;
19049;SDS011;9657;45.940;12.840;2023-04-03T03:52:07;5.43;;;4.50;;
19049;SDS011;9657;45.940;12.840;2023-04-03T03:54:35;5.43;;;3.73;;
19049;SDS011;9657;45.940;12.840;2023-04-03T03:57:03;4.57;;;3.80;;
19049;SDS011;9657;45.940;12.840;2023-04-03T03:59:30;4.00;;;3.60;;
19049;SDS011;9657;45.940;12.840;2023-04-03T04:01:57;4.63;;;4.20;;
19049;SDS011;9657;45.940;12.840;2023-04-03T04:04:24;3.93;;;3.40;;
19049;SDS011;9657;45.940;12.840;2023-04-03T04:06:52;4.70;;;3.97;;
19049;SDS011;9657;45.940;12.840;2023-04-03T04:09:21;5.93;;;4.20;;
19049;SDS011;9657;45.940;12.840;2023-04-03T04:11:48;6.73;;;4.17;;
19049;SDS011;9657;45.940;12.840;2023-04-03T04:14:15;5.60;;;3.77;;
19049;SDS011;9657;45.940;12.840;2023-04-03T04:16:43;6.17;;;4.20;;
19049;SDS011;9657;45.940;12.840;2023-04-03T04:19:10;5.70;;;3.93;;
19049;SDS011;9657;45.940;12.840;2023-04-03T04:21:37;5.37;;;3.93;;
19049;SDS011;9657;45.940;12.840;2023-04-03T04:24:06;5.43;;;4.40;;
19049;SDS011;9657;45.940;12.840;2023-04-03T04:26:34;4.73;;;4.10;;
19049;SDS011;9657;45.940;12.840;2023-04-03T04:29:01;5.37;;;4.10;;
19049;SDS011;9657;45.940;12.840;2023-04-03T04:31:28;5.17;;;3.70;;
19049;SDS011;9657;45.940;12.840;2023-04-03T04:33:55;4.93;;;3.70;;
19049;SDS011;9657;45.940;12.840;2023-04-03T04:36:22;4.27;;;3.80;;
19049;SDS011;9657;45.940;12.840;2023-04-03T04:38:49;4.80;;;3.67;;
19049;SDS011;9657;45.940;12.840;2023-04-03T04:41:19;4.60;;;4.20;;
19049;SDS011;9657;45.940;12.840;2023-04-03T04:43:47;4.30;;;3.90;;
19049;SDS011;9657;45.940;12.840;2023-04-03T04:46:14;4.80;;;4.03;;
19049;SDS011;9657;45.940;12.840;2023-04-03T04:48:41;5.57;;;3.90;;
19049;SDS011;9657;45.940;12.840;2023-04-03T04:51:08;5.97;;;4.20;;
19049;SDS011;9657;45.940;12.840;2023-04-03T04:53:36;4.17;;;3.77;;
19049;SDS011;9657;45.940;12.840;2023-04-03T04:56:03;4.93;;;3.80;;
19049;SDS011;9657;45.940;12.840;2023-04-03T04:58:32;4.87;;;3.93;;
19049;SDS011;9657;45.940;12.840;2023-04-03T05:00:59;3.60;;;3.30;;
19049;SDS011;9657;45.940;12.840;2023-04-03T05:03:26;4.33;;;3.50;;
19049;SDS011;9657;45.940;12.840;2023-04-03T05:05:54;4.90;;;3.93;;
19049;SDS011;9657;45.940;12.840;2023-04-03T05:08:21;4.00;;;3.40;;
19049;SDS011;9657;45.940;12.840;2023-04-03T05:10:48;4.77;;;3.80;;
19049;SDS011;9657;45.940;12.840;2023-04-03T05:13:15;4.37;;;3.83;;
19049;SDS011;9657;45.940;12.840;2023-04-03T05:15:43;4.80;;;3.83;;
19049;SDS011;9657;45.940;12.840;2023-04-03T05:18:10;7.50;;;4.37;;
19049;SDS011;9657;45.940;12.840;2023-04-03T05:20:37;7.00;;;3.50;;
19049;SDS011;9657;45.940;12.840;2023-04-03T05:23:04;8.20;;;4.10;;
19049;SDS011;9657;45.940;12.840;2023-04-03T05:25:32;6.00;;;4.23;;
19049;SDS011;9657;45.940;12.840;2023-04-03T05:27:59;5.73;;;3.53;;
19049;SDS011;9657;45.940;12.840;2023-04-03T05:30:26;7.13;;;4.43;;
19049;SDS011;9657;45.940;12.840;2023-04-03T05:32:54;5.70;;;3.60;;
19049;SDS011;9657;45.940;12.840;2023-04-03T05:35:21;5.33;;;3.60;;
19049;SDS011;9657;45.940;12.840;2023-04-03T05:37:48;4.60;;;3.87;;
19049;SDS011;9657;45.940;12.840;2023-04-03T05:40:15;4.23;;;3.80;;
19049;SDS011;9657;45.940;12.840;2023-04-03T05:42:43;4.70;;;3.80;;
19049;SDS011;9657;45.940;12.840;2023-04-03T05:45:10;5.10;;;3.70;;
19049;SDS011;9657;45.940;12.840;2023-04-03T05:47:37;7.27;;;3.80;;
19049;SDS011;9657;45.940;12.840;2023-04-03T05:50:06;7.63;;;3.97;;
19049;SDS011;9657;45.940;12.840;2023-04-03T05:52:35;4.27;;;3.60;;
19049;SDS011;9657;45.940;12.840;2023-04-03T05:55:04;8.97;;;4.37;;
19049;SDS011;9657;45.940;12.840;2023-04-03T05:57:32;6.93;;;4.07;;
19049;SDS011;9657;45.940;12.840;2023-04-03T05:59:59;7.27;;;4.10;;
19049;SDS011;9657;45.940;12.840;2023-04-03T06:02:26;6.70;;;3.90;;
19049;SDS011;9657;45.940;12.840;2023-04-03T06:04:53;6.03;;;4.23;;
19049;SDS011;9657;45.940;12.840;2023-04-03T06:07:22;8.33;;;4.10;;
19049;SDS011;9657;45.940;12.840;2023-04-03T06:09:53;6.23;;;4.10;;
19049;SDS011;9657;45.940;12.840;2023-04-03T06:12:22;6.07;;;3.83;;
19049;SDS011;9657;45.940;12.840;2023-04-03T06:14:49;8.33;;;4.43;;
19049;SDS011;9657;45.940;12.840;2023-04-03T06:17:16;6.97;;;4.53;;
19049;SDS011;9657;45.940;12.840;2023-04-03T06:19:43;5.37;;;3.60;;
19049;SDS011;9657;45.940;12.840;2023-04-03T06:22:10;6.20;;;4.50;;
19049;SDS011;9657;45.940;12.840;2023-04-03T06:24:39;7.00;;;4.13;;
19049;SDS011;9657;45.940;12.840;2023-04-03T06:27:06;6.90;;;3.60;;
19049;SDS011;9657;45.940;12.840;2023-04-03T06:29:34;6.00;;;3.97;;
19049;SDS011;9657;45.940;12.840;2023-04-03T06:32:02;8.43;;;4.13;;
19049;SDS011;9657;45.940;12.840;2023-04-03T06:34:29;6.17;;;4.07;;
19049;SDS011;9657;45.940;12.840;2023-04-03T06:36:56;5.20;;;3.97;;
19049;SDS011;9657;45.940;12.840;2023-04-03T06:39:23;8.17;;;3.87;;
19049;SDS011;9657;45.940;12.840;2023-04-03T06:41:52;4.60;;;3.50;;
19049;SDS011;9657;45.940;12.840;2023-04-03T06:44:19;6.70;;;3.80;;
19049;SDS011;9657;45.940;12.840;2023-04-03T06:46:46;7.47;;;3.50;;
19049;SDS011;9657;45.940;12.840;2023-04-03T06:49:13;4.17;;;3.17;;
19049;SDS011;9657;45.940;12.840;2023-04-03T06:51:40;7.77;;;4.20;;
19049;SDS011;9657;45.940;12.840;2023-04-03T06:54:07;4.17;;;3.47;;
19049;SDS011;9657;45.940;12.840;2023-04-03T06:56:34;6.97;;;3.67;;
19049;SDS011;9657;45.940;12.840;2023-04-03T06:59:03;5.43;;;3.37;;
19049;SDS011;9657;45.940;12.840;2023-04-03T07:01:30;6.83;;;4.00;;
19049;SDS011;9657;45.940;12.840;2023-04-03T07:03:57;6.30;;;3.53;;
19049;SDS011;9657;45.940;12.840;2023-04-03T07:06:24;6.93;;;4.10;;
19049;SDS011;9657;45.940;12.840;2023-04-03T07:08:53;5.20;;;3.47;;
19049;SDS011;9657;45.940;12.840;2023-04-03T07:11:20;4.93;;;3.60;;
19049;SDS011;9657;45.940;12.840;2023-04-03T07:13:47;5.17;;;3.57;;
19049;SDS011;9657;45.940;12.840;2023-04-03T07:16:16;8.57;;;4.13;;
19049;SDS011;9657;45.940;12.840;2023-04-03T07:18:43;3.70;;;3.27;;
19049;SDS011;9657;45.940;12.840;2023-04-03T07:21:10;6.50;;;3.50;;
19049;SDS011;9657;45.940;12.840;2023-04-03T07:23:38;4.47;;;3.80;;
19049;SDS011;9657;45.940;12.840;2023-04-03T07:26:05;6.17;;;3.30;;
19049;SDS011;9657;45.940;12.840;2023-04-03T07:28:33;4.83;;;3.17;;
19049;SDS011;9657;45.940;12.840;2023-04-03T07:31:02;4.87;;;3.30;;
19049;SDS011;9657;45.940;12.840;2023-04-03T07:33:34;8.53;;;3.97;;
19049;SDS011;9657;45.940;12.840;2023-04-03T07:36:02;4.93;;;3.47;;
19049;SDS011;9657;45.940;12.840;2023-04-03T07:38:29;6.30;;;3.73;;
19049;SDS011;9657;45.940;12.840;2023-04-03T07:40:57;4.80;;;2.90;;
19049;SDS011;9657;45.940;12.840;2023-04-03T07:43:24;5.53;;;3.33;;
19049;SDS011;9657;45.940;12.840;2023-04-03T07:45:51;5.30;;;3.33;;
19049;SDS011;9657;45.940;12.840;2023-04-03T07:48:19;4.43;;;3.57;;
19049;SDS011;9657;45.940;12.840;2023-04-03T07:50:49;4.23;;;3.00;;
19049;SDS011;9657;45.940;12.840;2023-04-03T07:53:16;3.87;;;3.37;;
19049;SDS011;9657;45.940;12.840;2023-04-03T07:55:45;7.63;;;3.13;;
19049;SDS011;9657;45.940;12.840;2023-04-03T07:58:14;5.40;;;3.13;;
19049;SDS011;9657;45.940;12.840;2023-04-03T08:00:42;4.70;;;2.93;;
19049;SDS011;9657;45.940;12.840;2023-04-03T08:03:10;4.30;;;2.77;;
19049;SDS011;9657;45.940;12.840;2023-04-03T08:05:38;5.27;;;2.93;;
19049;SDS011;9657;45.940;12.840;2023-04-03T08:08:08;2.90;;;2.63;;
19049;SDS011;9657;45.940;12.840;2023-04-03T08:10:37;3.27;;;2.70;;
19049;SDS011;9657;45.940;12.840;2023-04-03T08:13:04;6.10;;;3.17;;
19049;SDS011;9657;45.940;12.840;2023-04-03T08:15:32;6.73;;;2.83;;
19049;SDS011;9657;45.940;12.840;2023-04-03T08:18:00;6.00;;;3.37;;
19049;SDS011;9657;45.940;12.840;2023-04-03T08:20:27;5.93;;;3.30;;
19049;SDS011;9657;45.940;12.840;2023-04-03T08:22:54;5.27;;;2.93;;
19049;SDS011;9657;45.940;12.840;2023-04-03T08:25:23;6.10;;;2.50;;
19049;SDS011;9657;45.940;12.840;2023-04-03T08:27:50;3.43;;;2.40;;
19049;SDS011;9657;45.940;12.840;2023-04-03T08:30:17;3.67;;;2.30;;
19049;SDS011;9657;45.940;12.840;2023-04-03T08:32:44;5.57;;;2.77;;
19049;SDS011;9657;45.940;12.840;2023-04-03T08:35:11;6.23;;;2.43;;
19049;SDS011;9657;45.940;12.840;2023-04-03T08:37:39;6.77;;;2.40;;
19049;SDS011;9657;45.940;12.840;2023-04-03T08:40:07;2.70;;;1.90;;
19049;SDS011;9657;45.940;12.840;2023-04-03T08:42:43;4.63;;;2.70;;
19049;SDS011;9657;45.940;12.840;2023-04-03T08:45:16;3.07;;;2.07;;
19049;SDS011;9657;45.940;12.840;2023-04-03T08:47:49;3.43;;;2.40;;
19049;SDS011;9657;45.940;12.840;2023-04-03T08:50:24;2.87;;;2.00;;
19049;SDS011;9657;45.940;12.840;2023-04-03T08:52:57;4.10;;;2.20;;
19049;SDS011;9657;45.940;12.840;2023-04-03T08:55:25;2.47;;;2.00;;
19049;SDS011;9657;45.940;12.840;2023-04-03T08:57:59;2.93;;;2.13;;
19049;SDS011;9657;45.940;12.840;2023-04-03T09:00:29;2.10;;;1.90;;
19049;SDS011;9657;45.940;12.840;2023-04-03T09:02:59;2.80;;;2.20;;
19049;SDS011;9657;45.940;12.840;2023-04-03T09:05:30;2.73;;;2.00;;
19049;SDS011;9657;45.940;12.840;2023-04-03T09:08:07;2.50;;;2.00;;
19049;SDS011;9657;45.940;12.840;2023-04-03T09:10:40;2.47;;;1.63;;
19049;SDS011;9657;45.940;12.840;2023-04-03T09:13:10;3.10;;;2.03;;
19049;SDS011;9657;45.940;12.840;2023-04-03T09:15:47;2.40;;;1.83;;
19049;SDS011;9657;45.940;12.840;2023-04-03T09:18:15;3.40;;;1.90;;
19049;SDS011;9657;45.940;12.840;2023-04-03T09:20:48;2.57;;;1.77;;
19049;SDS011;9657;45.940;12.840;2023-04-03T09:23:22;4.47;;;2.33;;
19049;SDS011;9657;45.940;12.840;2023-04-03T09:25:56;2.13;;;1.70;;
19049;SDS011;9657;45.940;12.840;2023-04-03T09:28:30;4.10;;;1.80;;
19049;SDS011;9657;45.940;12.840;2023-04-03T09:31:00;3.43;;;1.90;;
19049;SDS011;9657;45.940;12.840;2023-04-03T09:33:28;2.03;;;1.43;;
19049;SDS011;9657;45.940;12.840;2023-04-03T09:35:56;2.63;;;2.00;;
19049;SDS011;9657;45.940;12.840;2023-04-03T09:38:23;1.60;;;1.40;;
19049;SDS011;9657;45.940;12.840;2023-04-03T09:40:51;2.50;;;1.97;;
19049;SDS011;9657;45.940;12.840;2023-04-03T09:43:32;1.80;;;1.60;;
19049;SDS011;9657;45.940;12.840;2023-04-03T09:46:17;2.03;;;1.73;;
19049;SDS011;9657;45.940;12.840;2023-04-03T09:48:51;1.93;;;1.67;;
19049;SDS011;9657;45.940;12.840;2023-04-03T09:51:24;2.90;;;1.63;;
19049;SDS011;9657;45.940;12.840;2023-04-03T09:53:53;2.50;;;1.67;;
19049;SDS011;9657;45.940;12.840;2023-04-03T09:56:22;1.93;;;1.70;;
19049;SDS011;9657;45.940;12.840;2023-04-03T09:59:02;1.93;;;1.60;;
19049;SDS011;9657;45.940;12.840;2023-04-03T10:01:35;2.63;;;1.60;;
19049;SDS011;9657;45.940;12.840;2023-04-03T10:04:05;1.70;;;1.60;;
19049;SDS011;9657;45.940;12.840;2023-04-03T10:06:36;1.47;;;1.30;;
19049;SDS011;9657;45.940;12.840;2023-04-03T10:09:15;3.73;;;1.73;;
19049;SDS011;9657;45.940;12.840;2023-04-03T10:11:59;2.17;;;1.70;;
19049;SDS011;9657;45.940;12.840;2023-04-03T10:14:31;2.47;;;1.63;;
19049;SDS011;9657;45.940;12.840;2023-04-03T10:17:04;2.03;;;1.70;;
19049;SDS011;9657;45.940;12.840;2023-04-03T10:19:41;1.80;;;1.30;;
19049;SDS011;9657;45.940;12.840;2023-04-03T10:22:15;2.20;;;1.67;;
19049;SDS011;9657;45.940;12.840;2023-04-03T10:24:51;1.73;;;1.40;;
19049;SDS011;9657;45.940;12.840;2023-04-03T10:27:27;2.17;;;1.50;;
19049;SDS011;9657;45.940;12.840;2023-04-03T10:30:13;2.37;;;1.70;;
19049;SDS011;9657;45.940;12.840;2023-04-03T10:32:54;1.60;;;1.50;;
19049;SDS011;9657;45.940;12.840;2023-04-03T10:35:37;1.57;;;1.47;;
19049;SDS011;9657;45.940;12.840;2023-04-03T10:38:13;2.40;;;1.63;;
19049;SDS011;9657;45.940;12.840;2023-04-03T10:40:47;2.10;;;1.60;;
19049;SDS011;9657;45.940;12.840;2023-04-03T10:43:21;1.80;;;1.67;;
19049;SDS011;9657;45.940;12.840;2023-04-03T10:46:01;1.40;;;1.30;;
19049;SDS011;9657;45.940;12.840;2023-04-03T10:48:40;2.10;;;1.17;;
19049;SDS011;9657;45.940;12.840;2023-04-03T10:51:22;2.10;;;1.50;;
19049;SDS011;9657;45.940;12.840;2023-04-03T10:53:55;1.27;;;1.17;;
19049;SDS011;9657;45.940;12.840;2023-04-03T10:56:30;1.60;;;1.40;;
19049;SDS011;9657;45.940;12.840;2023-04-03T10:59:05;3.13;;;1.50;;
19049;SDS011;9657;45.940;12.840;2023-04-03T11:01:44;1.43;;;1.30;;
19049;SDS011;9657;45.940;12.840;2023-04-03T11:04:14;1.83;;;1.23;;
19049;SDS011;9657;45.940;12.840;2023-04-03T11:06:44;1.73;;;1.40;;
19049;SDS011;9657;45.940;12.840;2023-04-03T11:09:17;1.37;;;1.23;;
19049;SDS011;9657;45.940;12.840;2023-04-03T11:11:49;1.57;;;1.47;;
19049;SDS011;9657;45.940;12.840;2023-04-03T11:14:24;1.63;;;1.30;;
19049;SDS011;9657;45.940;12.840;2023-04-03T11:16:59;1.67;;;1.50;;
19049;SDS011;9657;45.940;12.840;2023-04-03T11:19:34;1.20;;;1.10;;
19049;SDS011;9657;45.940;12.840;2023-04-03T11:22:08;2.13;;;1.30;;
19049;SDS011;9657;45.940;12.840;2023-04-03T11:24:40;1.73;;;1.33;;
19049;SDS011;9657;45.940;12.840;2023-04-03T11:27:11;1.50;;;1.27;;
19049;SDS011;9657;45.940;12.840;2023-04-03T11:29:43;1.90;;;1.60;;
19049;SDS011;9657;45.940;12.840;2023-04-03T11:32:20;1.27;;;1.17;;
19049;SDS011;9657;45.940;12.840;2023-04-03T11:35:04;1.30;;;1.07;;
19049;SDS011;9657;45.940;12.840;2023-04-03T11:37:34;1.43;;;1.20;;
19049;SDS011;9657;45.940;12.840;2023-04-03T11:40:05;1.47;;;1.33;;
19049;SDS011;9657;45.940;12.840;2023-04-03T11:42:36;1.23;;;1.13;;
19049;SDS011;9657;45.940;12.840;2023-04-03T11:45:22;2.37;;;1.40;;
19049;SDS011;9657;45.940;12.840;2023-04-03T11:47:59;1.13;;;1.00;;
19049;SDS011;9657;45.940;12.840;2023-04-03T11:50:44;1.73;;;1.20;;
19049;SDS011;9657;45.940;12.840;2023-04-03T11:53:34;2.13;;;1.30;;
19049;SDS011;9657;45.940;12.840;2023-04-03T11:56:03;1.80;;;1.00;;
19049;SDS011;9657;45.940;12.840;2023-04-03T12:01:50;1.60;;;1.20;;
19049;SDS011;9657;45.940;12.840;2023-04-03T12:04:20;1.37;;;1.20;;
19049;SDS011;9657;45.940;12.840;2023-04-03T12:12:55;1.30;;;1.20;;
19049;SDS011;9657;45.940;12.840;2023-04-03T12:21:25;1.33;;;1.10;;
19049;SDS011;9657;45.940;12.840;2023-04-03T12:24:34;1.30;;;1.10;;
19049;SDS011;9657;45.940;12.840;2023-04-03T12:27:02;1.63;;;1.40;;
19049;SDS011;9657;45.940;12.840;2023-04-03T12:29:46;1.67;;;1.00;;
19049;SDS011;9657;45.940;12.840;2023-04-03T12:32:21;1.70;;;1.33;;
19049;SDS011;9657;45.940;12.840;2023-04-03T12:35:03;3.13;;;1.30;;
19049;SDS011;9657;45.940;12.840;2023-04-03T12:37:42;1.47;;;1.20;;
19049;SDS011;9657;45.940;12.840;2023-04-03T12:40:21;1.20;;;0.90;;
19049;SDS011;9657;45.940;12.840;2023-04-03T12:43:14;1.80;;;1.20;;
19049;SDS011;9657;45.940;12.840;2023-04-03T12:45:57;1.73;;;1.43;;
19049;SDS011;9657;45.940;12.840;2023-04-03T12:48:30;1.80;;;1.13;;
19049;SDS011;9657;45.940;12.840;2023-04-03T12:51:00;1.37;;;1.20;;
19049;SDS011;9657;45.940;12.840;2023-04-03T12:53:31;1.40;;;1.30;;
19049;SDS011;9657;45.940;12.840;2023-04-03T12:58:46;1.20;;;1.10;;
19049;SDS011;9657;45.940;12.840;2023-04-03T13:01:14;1.30;;;1.00;;
19049;SDS011;9657;45.940;12.840;2023-04-03T13:03:44;1.20;;;0.90;;
19049;SDS011;9657;45.940;12.840;2023-04-03T13:06:14;2.03;;;1.40;;
19049;SDS011;9657;45.940;12.840;2023-04-03T13:08:49;2.07;;;1.17;;
19049;SDS011;9657;45.940;12.840;2023-04-03T13:11:17;1.40;;;1.30;;
19049;SDS011;9657;45.940;12.840;2023-04-03T13:13:57;1.67;;;1.03;;
19049;SDS011;9657;45.940;12.840;2023-04-03T13:16:25;1.37;;;1.20;;
19049;SDS011;9657;45.940;12.840;2023-04-03T13:18:53;1.03;;;0.97;;
19049;SDS011;9657;45.940;12.840;2023-04-03T13:21:21;1.70;;;1.17;;
19049;SDS011;9657;45.940;12.840;2023-04-03T13:23:53;1.37;;;1.03;;
19049;SDS011;9657;45.940;12.840;2023-04-03T13:26:23;1.80;;;1.30;;
19049;SDS011;9657;45.940;12.840;2023-04-03T13:28:53;2.70;;;1.47;;
19049;SDS011;9657;45.940;12.840;2023-04-03T13:31:25;1.47;;;1.37;;
19049;SDS011;9657;45.940;12.840;2023-04-03T13:33:55;1.60;;;1.50;;
19049;SDS011;9657;45.940;12.840;2023-04-03T13:36:24;1.13;;;1.03;;
19049;SDS011;9657;45.940;12.840;2023-04-03T13:39:00;3.00;;;1.10;;
19049;SDS011;9657;45.940;12.840;2023-04-03T13:41:30;1.80;;;1.07;;
19049;SDS011;9657;45.940;12.840;2023-04-03T13:46:54;1.83;;;1.30;;
19049;SDS011;9657;45.940;12.840;2023-04-03T13:49:27;1.30;;;1.20;;
19049;SDS011;9657;45.940;12.840;2023-04-03T13:51:57;1.70;;;1.30;;
19049;SDS011;9657;45.940;12.840;2023-04-03T13:54:29;2.43;;;1.20;;
19049;SDS011;9657;45.940;12.840;2023-04-03T13:56:58;1.63;;;1.30;;
19049;SDS011;9657;45.940;12.840;2023-04-03T13:59:27;1.23;;;1.10;;
19049;SDS011;9657;45.940;12.840;2023-04-03T14:02:09;1.40;;;1.30;;
19049;SDS011;9657;45.940;12.840;2023-04-03T14:04:48;2.43;;;1.30;;
19049;SDS011;9657;45.940;12.840;2023-04-03T14:07:18;2.33;;;1.33;;
19049;SDS011;9657;45.940;12.840;2023-04-03T14:09:47;2.03;;;1.40;;
19049;SDS011;9657;45.940;12.840;2023-04-03T14:12:15;1.50;;;1.10;;
19049;SDS011;9657;45.940;12.840;2023-04-03T14:14:46;1.30;;;1.17;;
19049;SDS011;9657;45.940;12.840;2023-04-03T14:17:14;1.67;;;1.30;;
19049;SDS011;9657;45.940;12.840;2023-04-03T14:19:44;1.47;;;1.00;;
19049;SDS011;9657;45.940;12.840;2023-04-03T14:22:15;1.80;;;1.03;;
19049;SDS011;9657;45.940;12.840;2023-04-03T14:24:43;1.57;;;1.20;;
19049;SDS011;9657;45.940;12.840;2023-04-03T14:27:15;1.37;;;1.27;;
19049;SDS011;9657;45.940;12.840;2023-04-03T14:29:45;1.97;;;1.13;;
19049;SDS011;9657;45.940;12.840;2023-04-03T14:32:12;1.07;;;0.97;;
19049;SDS011;9657;45.940;12.840;2023-04-03T14:34:41;1.43;;;1.27;;
19049;SDS011;9657;45.940;12.840;2023-04-03T14:37:09;1.27;;;1.03;;
19049;SDS011;9657;45.940;12.840;2023-04-03T14:39:37;1.43;;;1.10;;
19049;SDS011;9657;45.940;12.840;2023-04-03T14:42:05;1.10;;;1.00;;
19049;SDS011;9657;45.940;12.840;2023-04-03T14:44:34;2.27;;;1.17;;
19049;SDS011;9657;45.940;12.840;2023-04-03T14:47:01;1.43;;;1.10;;
19049;SDS011;9657;45.940;12.840;2023-04-03T14:49:28;3.77;;;1.10;;
19049;SDS011;9657;45.940;12.840;2023-04-03T14:51:56;1.37;;;1.03;;
19049;SDS011;9657;45.940;12.840;2023-04-03T14:54:23;1.40;;;1.07;;
19049;SDS011;9657;45.940;12.840;2023-04-03T14:56:52;1.10;;;1.00;;
19049;SDS011;9657;45.940;12.840;2023-04-03T14:59:20;1.27;;;1.00;;
19049;SDS011;9657;45.940;12.840;2023-04-03T15:01:49;1.20;;;0.83;;
19049;SDS011;9657;45.940;12.840;2023-04-03T15:04:17;1.13;;;0.93;;
19049;SDS011;9657;45.940;12.840;2023-04-03T15:06:46;4.17;;;1.30;;
19049;SDS011;9657;45.940;12.840;2023-04-03T15:09:19;1.27;;;1.00;;
19049;SDS011;9657;45.940;12.840;2023-04-03T15:11:48;1.00;;;0.80;;
19049;SDS011;9657;45.940;12.840;2023-04-03T15:14:16;2.10;;;0.90;;
19049;SDS011;9657;45.940;12.840;2023-04-03T15:16:43;2.30;;;1.17;;
19049;SDS011;9657;45.940;12.840;2023-04-03T15:19:12;1.30;;;1.00;;
19049;SDS011;9657;45.940;12.840;2023-04-03T15:21:39;1.13;;;1.03;;
19049;SDS011;9657;45.940;12.840;2023-04-03T15:24:06;1.07;;;0.80;;
19049;SDS011;9657;45.940;12.840;2023-04-03T15:26:35;1.77;;;1.07;;
19049;SDS011;9657;45.940;12.840;2023-04-03T15:29:03;2.20;;;0.80;;